createdAt,value
2022-12-01T00:00:54.957Z,100.00
2022-12-01T00:03:57.607Z,100.00
2022-12-01T00:06:59.871Z,96.49
2022-12-01T00:10:21.142Z,98.03
2022-12-01T00:13:23.382Z,98.03
2022-12-01T00:16:25.980Z,98.93
2022-12-01T00:19:28.154Z,98.37
2022-12-01T00:22:30.574Z,98.74
2022-12-01T00:25:32.854Z,99.15
2022-12-01T00:28:35.351Z,98.94
2022-12-01T00:31:37.784Z,96.26
2022-12-01T00:34:40.418Z,95.60
2022-12-01T00:37:43.106Z,94.69
2022-12-01T00:40:45.591Z,97.09
2022-12-01T00:43:48.139Z,98.01
2022-12-01T00:46:50.773Z,99.77
2022-12-01T00:49:53.087Z,100.00
2022-12-01T00:52:55.579Z,100.00
2022-12-01T00:55:57.870Z,100.00
2022-12-01T00:59:00.421Z,100.00
2022-12-01T01:02:03.529Z,100.00
2022-12-01T01:05:06.808Z,100.00
2022-12-01T01:08:09.849Z,100.00
2022-12-01T01:11:12.384Z,100.00
2022-12-01T01:14:14.658Z,100.00
2022-12-01T01:17:17.064Z,100.00
2022-12-01T01:20:19.250Z,100.00
2022-12-01T01:23:21.809Z,100.00
2022-12-01T01:26:25.354Z,100.00
2022-12-01T01:29:27.958Z,100.00
2022-12-01T01:32:30.166Z,100.00
2022-12-01T01:35:33.220Z,100.00
2022-12-01T01:38:35.668Z,100.00
2022-12-01T01:41:38.469Z,100.00
2022-12-01T01:44:52.579Z,100.00
2022-12-01T01:47:57.040Z,100.00
2022-12-01T01:50:59.876Z,100.00
2022-12-01T01:54:04.317Z,100.00
2022-12-01T01:57:07.601Z,100.00
2022-12-01T02:00:11.894Z,100.00
2022-12-01T02:03:16.395Z,100.00
2022-12-01T02:06:18.910Z,100.00
2022-12-01T02:09:21.200Z,100.00
2022-12-01T02:12:23.693Z,100.00
2022-12-01T02:15:44.761Z,100.00
2022-12-01T02:19:10.367Z,100.00
2022-12-01T02:22:31.633Z,100.00
2022-12-01T02:25:52.978Z,100.00
2022-12-01T02:29:01.459Z,100.00
2022-12-01T02:32:06.789Z,100.00
2022-12-01T02:35:14.786Z,100.00
2022-12-01T02:38:28.638Z,100.00
2022-12-01T02:41:33.629Z,100.00
2022-12-01T02:44:39.565Z,100.00
2022-12-01T02:47:42.064Z,100.00
2022-12-01T02:50:45.845Z,100.00
2022-12-01T02:53:48.615Z,100.00
2022-12-01T02:56:54.637Z,100.00
2022-12-01T02:59:57.194Z,100.00
2022-12-01T03:03:13.120Z,100.00
2022-12-01T03:06:22.821Z,100.00
2022-12-01T03:09:28.630Z,100.00
2022-12-01T03:12:44.098Z,100.00
2022-12-01T03:15:52.459Z,100.00
2022-12-01T03:18:56.665Z,100.00
2022-12-01T03:22:05.349Z,100.00
2022-12-01T03:25:07.748Z,100.00
2022-12-01T03:28:21.336Z,100.00
2022-12-01T03:31:31.709Z,100.00
2022-12-01T03:34:34.218Z,100.00
2022-12-01T03:37:40.300Z,100.00
2022-12-01T03:40:43.290Z,100.00
2022-12-01T03:43:51.110Z,100.00
2022-12-01T03:46:59.134Z,100.00
2022-12-01T03:50:01.879Z,100.00
2022-12-01T03:53:04.694Z,100.00
2022-12-01T03:56:07.755Z,100.00
2022-12-01T03:59:11.433Z,100.00
2022-12-01T04:02:13.825Z,100.00
2022-12-01T04:05:19.957Z,100.00
2022-12-01T04:08:25.241Z,100.00
2022-12-01T04:11:46.222Z,100.00
2022-12-01T04:14:48.341Z,100.00
2022-12-01T04:17:50.843Z,100.00
2022-12-01T04:20:53.180Z,100.00
2022-12-01T04:24:01.645Z,100.00
2022-12-01T04:27:03.848Z,100.00
2022-12-01T04:30:06.662Z,100.00
2022-12-01T04:33:08.872Z,100.00
2022-12-01T04:36:11.324Z,100.00
2022-12-01T04:39:13.513Z,100.00
2022-12-01T04:42:16.020Z,100.00
2022-12-01T04:45:18.202Z,100.00
2022-12-01T04:48:20.726Z,100.00
2022-12-01T04:51:23.136Z,100.00
2022-12-01T04:54:25.621Z,100.00
2022-12-01T04:57:27.930Z,100.00
2022-12-01T05:00:30.767Z,100.00
2022-12-01T05:03:36.088Z,100.00
2022-12-01T05:06:38.662Z,100.00
2022-12-01T05:09:41.194Z,100.00
2022-12-01T05:12:43.958Z,100.00
2022-12-01T05:15:46.218Z,100.00
2022-12-01T05:19:13.017Z,100.00
2022-12-01T05:22:15.220Z,100.00
2022-12-01T05:25:17.967Z,100.00
2022-12-01T05:28:21.029Z,100.00
2022-12-01T05:31:23.571Z,100.00
2022-12-01T05:34:25.767Z,100.00
2022-12-01T05:37:33.262Z,100.00
2022-12-01T05:40:36.077Z,100.00
2022-12-01T05:43:38.745Z,100.00
2022-12-01T05:46:40.971Z,100.00
2022-12-01T05:49:43.791Z,100.00
2022-12-01T05:52:46.062Z,100.00
2022-12-01T05:55:53.381Z,100.00
2022-12-01T05:58:55.633Z,100.00
2022-12-01T06:01:58.486Z,100.00
2022-12-01T06:05:01.226Z,100.00
2022-12-01T06:08:03.449Z,100.00
2022-12-01T06:11:06.138Z,100.00
2022-12-01T06:14:08.452Z,100.00
2022-12-01T06:17:11.045Z,100.00
2022-12-01T06:20:13.435Z,100.00
2022-12-01T06:23:15.937Z,100.00
2022-12-01T06:26:18.148Z,100.00
2022-12-01T06:29:21.111Z,100.00
2022-12-01T06:32:23.301Z,100.00
2022-12-01T06:35:25.778Z,100.00
2022-12-01T06:38:31.583Z,100.00
2022-12-01T06:41:34.110Z,100.00
2022-12-01T06:44:36.406Z,100.00
2022-12-01T06:47:39.045Z,100.00
2022-12-01T06:50:41.287Z,100.00
2022-12-01T06:53:44.069Z,100.00
2022-12-01T06:56:46.377Z,100.00
2022-12-01T06:59:49.497Z,100.00
2022-12-01T07:02:52.880Z,100.00
2022-12-01T07:05:58.458Z,100.00
2022-12-01T07:09:01.101Z,100.00
2022-12-01T07:12:03.625Z,100.00
2022-12-01T07:15:07.872Z,100.00
2022-12-01T07:18:10.295Z,100.00
2022-12-01T07:21:14.862Z,100.00
2022-12-01T07:24:17.595Z,100.00
2022-12-01T07:27:19.794Z,100.00
2022-12-01T07:30:28.135Z,100.00
2022-12-01T07:33:30.934Z,100.00
2022-12-01T07:36:33.604Z,100.00
2022-12-01T07:39:36.711Z,100.00
2022-12-01T07:42:42.335Z,100.00
2022-12-01T07:45:44.627Z,100.00
2022-12-01T07:48:47.433Z,100.00
2022-12-01T07:51:49.714Z,100.00
2022-12-01T07:54:52.794Z,100.00
2022-12-01T07:57:55.037Z,100.00
2022-12-01T08:00:57.709Z,100.00
2022-12-01T08:04:02.253Z,100.00
2022-12-01T08:07:04.481Z,100.00
2022-12-01T08:10:07.349Z,100.00
2022-12-01T08:13:12.924Z,100.00
2022-12-01T08:16:20.848Z,100.00
2022-12-01T08:19:23.265Z,100.00
2022-12-01T08:22:25.963Z,100.00
2022-12-01T08:25:28.554Z,100.00
2022-12-01T08:28:31.188Z,100.00
2022-12-01T08:31:35.675Z,100.00
2022-12-01T08:34:38.802Z,100.00
2022-12-01T08:37:41.084Z,100.00
2022-12-01T08:40:43.891Z,100.00
2022-12-01T08:44:01.782Z,100.00
2022-12-01T08:47:04.531Z,100.00
2022-12-01T08:50:07.497Z,100.00
2022-12-01T08:53:12.382Z,100.00
2022-12-01T08:56:16.697Z,99.55
2022-12-01T08:59:19.229Z,100.00
2022-12-01T09:02:24.718Z,99.31
2022-12-01T09:05:28.086Z,98.87
2022-12-01T09:08:36.985Z,97.06
2022-12-01T09:11:40.444Z,98.29
2022-12-01T09:14:45.672Z,97.45
2022-12-01T09:17:48.377Z,95.94
2022-12-01T09:20:50.885Z,95.57
2022-12-01T09:23:53.527Z,94.82
2022-12-01T09:26:56.740Z,94.66
2022-12-01T09:29:59.238Z,93.19
2022-12-01T09:33:01.551Z,93.25
2022-12-01T09:36:05.247Z,93.79
2022-12-01T09:39:09.044Z,92.37
2022-12-01T09:42:13.847Z,90.50
2022-12-01T09:45:22.614Z,88.94
2022-12-01T09:48:31.349Z,87.86
2022-12-01T09:51:36.147Z,88.75
2022-12-01T09:54:38.858Z,86.30
2022-12-01T09:57:41.553Z,85.23
2022-12-01T10:00:44.563Z,84.62
2022-12-01T10:03:49.926Z,83.83
2022-12-01T10:06:59.065Z,82.52
2022-12-01T10:10:05.011Z,82.89
2022-12-01T10:13:16.193Z,81.48
2022-12-01T10:16:25.775Z,77.65
2022-12-01T10:19:40.074Z,80.28
2022-12-01T10:22:42.632Z,77.27
2022-12-01T10:25:54.183Z,78.26
2022-12-01T10:29:05.739Z,76.57
2022-12-01T10:32:16.841Z,76.38
2022-12-01T10:35:21.389Z,72.88
2022-12-01T10:38:35.165Z,73.62
2022-12-01T10:41:39.149Z,72.54
2022-12-01T10:44:42.285Z,74.24
2022-12-01T10:48:03.553Z,72.05
2022-12-01T10:51:16.134Z,74.06
2022-12-01T10:54:19.339Z,71.10
2022-12-01T10:57:21.735Z,70.03
2022-12-01T11:03:56.981Z,71.66
2022-12-01T11:07:00.474Z,70.42
2022-12-01T11:10:13.731Z,68.68
2022-12-01T11:13:16.155Z,69.27
2022-12-01T11:16:33.588Z,68.60
2022-12-01T11:19:36.205Z,70.11
2022-12-01T11:22:38.472Z,69.64
2022-12-01T11:25:41.375Z,69.80
2022-12-01T11:28:51.751Z,69.68
2022-12-01T11:31:54.789Z,69.07
2022-12-01T11:35:00.339Z,70.12
2022-12-01T11:38:28.736Z,70.92
2022-12-01T11:41:34.158Z,71.11
2022-12-01T11:44:51.273Z,72.44
2022-12-01T11:48:18.790Z,73.44
2022-12-01T11:51:21.290Z,72.16
2022-12-01T11:54:25.441Z,73.45
2022-12-01T11:57:36.136Z,73.02
2022-12-01T12:00:45.751Z,73.13
2022-12-01T12:04:17.676Z,71.98
2022-12-01T12:07:20.232Z,71.33
2022-12-01T12:10:41.455Z,70.18
2022-12-01T12:14:02.494Z,70.63
2022-12-01T12:17:08.299Z,71.96
2022-12-01T12:20:29.384Z,71.53
2022-12-01T12:23:33.000Z,71.92
2022-12-01T12:26:41.672Z,72.92
2022-12-01T12:29:51.865Z,72.37
2022-12-01T12:33:15.425Z,72.28
2022-12-01T12:36:24.026Z,72.17
2022-12-01T12:39:41.945Z,73.41
2022-12-01T12:43:04.109Z,71.56
2022-12-01T12:46:15.948Z,72.03
2022-12-01T12:49:20.175Z,73.12
2022-12-01T12:52:33.447Z,72.75
2022-12-01T12:55:41.430Z,72.51
2022-12-01T12:59:04.121Z,73.06
2022-12-01T13:02:18.735Z,73.29
2022-12-01T13:05:34.064Z,74.62
2022-12-01T13:08:46.421Z,73.86
2022-12-01T13:11:55.305Z,74.41
2022-12-01T13:15:13.625Z,74.26
2022-12-01T13:18:18.678Z,75.00
2022-12-01T13:21:22.503Z,73.88
2022-12-01T13:24:27.892Z,74.66
2022-12-01T13:27:33.170Z,74.15
2022-12-01T13:30:35.436Z,74.29
2022-12-01T13:33:39.393Z,73.95
2022-12-01T13:36:48.105Z,74.56
2022-12-01T13:39:53.753Z,74.76
2022-12-01T13:43:10.300Z,74.69
2022-12-01T13:46:21.474Z,75.11
2022-12-01T13:49:33.791Z,75.37
2022-12-01T13:52:46.857Z,75.47
2022-12-01T13:56:02.108Z,75.60
2022-12-01T13:59:25.296Z,77.00
2022-12-01T14:02:28.975Z,77.17
2022-12-01T14:05:43.929Z,77.60
2022-12-01T14:08:48.095Z,78.04
2022-12-01T14:11:56.194Z,78.29
2022-12-01T14:15:00.522Z,79.54
2022-12-01T14:18:08.048Z,80.30
2022-12-01T14:21:12.150Z,80.89
2022-12-01T14:24:27.743Z,81.41
2022-12-01T14:27:37.770Z,83.06
2022-12-01T14:30:40.854Z,83.67
2022-12-01T14:33:44.953Z,84.66
2022-12-01T14:36:49.136Z,87.17
2022-12-01T14:40:03.422Z,87.76
2022-12-01T14:43:24.791Z,88.03
2022-12-01T14:46:29.389Z,88.66
2022-12-01T14:49:40.625Z,89.93
2022-12-01T14:52:45.141Z,91.64
2022-12-01T14:56:08.402Z,91.74
2022-12-01T14:59:15.095Z,92.68
2022-12-01T15:02:17.690Z,92.32
2022-12-01T15:05:21.905Z,93.22
2022-12-01T15:08:58.368Z,94.63
2022-12-01T15:11:52.172Z,95.29
2022-12-01T15:14:55.068Z,96.67
2022-12-01T15:18:01.635Z,95.53
2022-12-01T15:21:07.240Z,97.92
2022-12-01T15:24:23.811Z,97.83
2022-12-01T15:27:28.152Z,98.78
2022-12-01T15:30:30.506Z,98.31
2022-12-01T15:33:37.142Z,98.79
2022-12-01T15:36:39.708Z,98.55
2022-12-01T15:39:53.534Z,99.72
2022-12-01T15:43:04.028Z,100.00
2022-12-01T15:46:12.741Z,99.63
2022-12-01T15:49:30.105Z,98.75
2022-12-01T15:52:43.783Z,99.39
2022-12-01T15:55:47.033Z,100.00
2022-12-01T15:58:49.794Z,100.00
2022-12-01T16:01:52.312Z,100.00
2022-12-01T16:05:09.883Z,100.00
2022-12-01T16:08:20.084Z,100.00
2022-12-01T16:11:23.726Z,100.00
2022-12-01T16:14:26.162Z,100.00
2022-12-01T16:17:40.406Z,100.00
2022-12-01T16:20:42.914Z,100.00
2022-12-01T16:23:45.510Z,100.00
2022-12-01T16:26:53.420Z,100.00
2022-12-01T16:30:00.956Z,100.00
2022-12-01T16:33:05.549Z,100.00
2022-12-01T16:36:08.183Z,100.00
2022-12-01T16:39:12.171Z,100.00
2022-12-01T16:42:15.576Z,100.00
2022-12-01T16:45:19.008Z,100.00
2022-12-01T16:48:21.784Z,100.00
2022-12-01T16:51:29.923Z,100.00
2022-12-01T16:54:44.926Z,100.00
2022-12-01T16:57:47.189Z,100.00
2022-12-01T17:00:52.749Z,100.00
2022-12-01T17:03:55.062Z,100.00
2022-12-01T17:06:57.647Z,100.00
2022-12-01T17:10:00.166Z,100.00
2022-12-01T17:13:02.634Z,100.00
2022-12-01T17:16:07.152Z,100.00
2022-12-01T17:19:10.665Z,100.00
2022-12-01T17:22:12.908Z,100.00
2022-12-01T17:25:15.487Z,100.00
2022-12-01T17:28:17.963Z,100.00
2022-12-01T17:31:20.693Z,100.00
2022-12-01T17:34:23.107Z,100.00
2022-12-01T17:37:30.040Z,100.00
2022-12-01T17:40:32.627Z,100.00
2022-12-01T17:43:36.095Z,100.00
2022-12-01T17:46:38.652Z,100.00
2022-12-01T17:49:41.198Z,100.00
2022-12-01T17:52:43.593Z,100.00
2022-12-01T17:55:46.099Z,100.00
2022-12-01T17:58:50.435Z,100.00
2022-12-01T18:01:53.152Z,100.00
2022-12-01T18:04:55.822Z,100.00
2022-12-01T18:07:58.129Z,100.00
2022-12-01T18:11:01.569Z,100.00
2022-12-01T18:14:03.767Z,100.00
2022-12-01T18:17:06.464Z,100.00
2022-12-01T18:20:09.065Z,100.00
2022-12-01T18:23:12.139Z,100.00
2022-12-01T18:26:16.208Z,100.00
2022-12-01T18:29:26.038Z,100.00
2022-12-01T18:32:28.674Z,100.00
2022-12-01T18:35:32.091Z,100.00
2022-12-01T18:38:34.418Z,100.00
2022-12-01T18:41:37.402Z,100.00
2022-12-01T18:44:39.696Z,100.00
2022-12-01T18:47:42.287Z,100.00
2022-12-01T18:50:44.775Z,100.00
2022-12-01T18:53:47.380Z,100.00
2022-12-01T18:56:51.740Z,100.00
2022-12-01T18:59:54.531Z,100.00
2022-12-01T19:02:57.204Z,100.00
2022-12-01T19:05:59.785Z,100.00
2022-12-01T19:09:03.531Z,100.00
2022-12-01T19:12:06.295Z,100.00
2022-12-01T19:15:08.821Z,100.00
2022-12-01T19:18:11.382Z,100.00
2022-12-01T19:21:15.195Z,100.00
2022-12-01T19:24:18.435Z,100.00
2022-12-01T19:27:21.826Z,100.00
2022-12-01T19:30:24.651Z,100.00
2022-12-01T19:33:28.932Z,100.00
2022-12-01T19:36:31.416Z,100.00
2022-12-01T19:39:33.917Z,100.00
2022-12-01T19:42:36.951Z,100.00
2022-12-01T19:45:39.713Z,100.00
2022-12-01T19:48:43.259Z,100.00
2022-12-01T19:51:45.593Z,100.00
2022-12-01T19:54:48.781Z,100.00
2022-12-01T19:57:51.843Z,100.00
2022-12-01T20:00:54.493Z,100.00
2022-12-01T20:03:57.048Z,100.00
2022-12-01T20:06:59.273Z,100.00
2022-12-01T20:10:01.876Z,100.00
2022-12-01T20:13:04.184Z,100.00
2022-12-01T20:16:11.764Z,100.00
2022-12-01T20:19:14.305Z,100.00
2022-12-01T20:22:16.779Z,100.00
2022-12-01T20:25:19.013Z,100.00
2022-12-01T20:28:21.601Z,100.00
2022-12-01T20:31:26.355Z,100.00
2022-12-01T20:34:30.680Z,100.00
2022-12-01T20:37:32.927Z,100.00
2022-12-01T20:40:35.540Z,100.00
2022-12-01T20:43:37.918Z,100.00
2022-12-01T20:46:45.282Z,100.00
2022-12-01T20:49:47.975Z,100.00
2022-12-01T20:52:50.499Z,100.00
2022-12-01T20:55:52.979Z,100.00
2022-12-01T20:58:55.672Z,100.00
2022-12-01T21:01:58.069Z,100.00
2022-12-01T21:05:00.957Z,100.00
2022-12-01T21:08:03.578Z,100.00
2022-12-01T21:11:07.555Z,100.00
2022-12-01T21:14:15.118Z,100.00
2022-12-01T21:17:33.949Z,100.00
2022-12-01T21:20:40.203Z,100.00
2022-12-01T21:23:42.764Z,100.00
2022-12-01T21:26:57.100Z,100.00
2022-12-01T21:30:07.333Z,100.00
2022-12-01T21:33:24.974Z,100.00
2022-12-01T21:36:29.783Z,100.00
2022-12-01T21:39:34.530Z,100.00
2022-12-01T21:42:37.104Z,100.00
2022-12-01T21:45:39.286Z,100.00
2022-12-01T21:48:42.786Z,100.00
2022-12-01T21:51:45.739Z,100.00
2022-12-01T21:54:48.985Z,100.00
2022-12-01T21:57:52.727Z,100.00
2022-12-01T22:00:56.700Z,100.00
2022-12-01T22:04:02.364Z,100.00
2022-12-01T22:07:05.193Z,100.00
2022-12-01T22:10:27.956Z,100.00
2022-12-01T22:13:30.116Z,100.00
2022-12-01T22:16:36.487Z,100.00
2022-12-01T22:19:42.348Z,100.00
2022-12-01T22:22:44.838Z,100.00
2022-12-01T22:25:48.088Z,100.00
2022-12-01T22:28:57.984Z,100.00
2022-12-01T22:32:20.162Z,100.00
2022-12-01T22:35:29.007Z,100.00
2022-12-01T22:38:34.296Z,100.00
2022-12-01T22:41:36.824Z,100.00
2022-12-01T22:44:39.149Z,100.00
2022-12-01T22:47:41.706Z,100.00
2022-12-01T22:50:48.656Z,100.00
2022-12-01T22:53:58.441Z,100.00
2022-12-01T22:57:19.639Z,100.00
2022-12-01T23:00:23.070Z,100.00
2022-12-01T23:03:26.215Z,100.00
2022-12-01T23:06:44.602Z,100.00
2022-12-01T23:09:47.474Z,100.00
2022-12-01T23:12:54.716Z,100.00
2022-12-01T23:15:57.016Z,100.00
2022-12-01T23:19:01.093Z,100.00
2022-12-01T23:22:03.387Z,100.00
2022-12-01T23:25:11.970Z,100.00
2022-12-01T23:28:14.267Z,100.00
2022-12-01T23:31:16.849Z,100.00
2022-12-01T23:34:22.343Z,100.00
2022-12-01T23:37:39.112Z,100.00
2022-12-01T23:40:41.341Z,100.00
2022-12-01T23:43:44.980Z,100.00
2022-12-01T23:46:51.946Z,100.00
2022-12-01T23:49:58.119Z,100.00
2022-12-01T23:53:01.523Z,100.00
2022-12-01T23:56:06.661Z,100.00
2022-12-01T23:59:10.950Z,100.00
